Terminal Aerodrome Forecast
Issued by NWS Upton, NY

Home | Current Version | Previous Version | Text Only | Print | Product List | Glossary On
Versions: 1 2 3 4 5 6 7 8 9 10 11 12 13 14 15 16 17 18 19 20 21 22 23 24 25 26 27 28 29 30
380
FTUS41 KOKX 241722
TAFBDR
TAF
KBDR 241722Z 2418/2518 22015G25KT P6SM OVC080
      TEMPO 2418/2419 6SM -SHRA BKN050
     FM241900 22015G25KT P6SM VCSH OVC040
     FM242300 22010G17KT P6SM OVC040
     FM250400 23007KT P6SM SCT040 BKN080
      TEMPO 2510/2514 3SM BR BKN020
     FM251400 28008KT 4SM BR OVC050
     FM251700 33007KT 4SM BR OVC015=

USA.gov is the U.S. government's official web portal to all federal, state and local government web resources and services.